sensor_id;sensor_type;location;lat;lon;timestamp;temperature;humidity
20457;DHT22;10387;51.102;6.848;2023-01-26T00:01:19;-1.00;99.90
20457;DHT22;10387;51.102;6.848;2023-01-26T00:03:45;-1.00;99.90
20457;DHT22;10387;51.102;6.848;2023-01-26T00:06:12;-1.00;99.90
20457;DHT22;10387;51.102;6.848;2023-01-26T00:08:38;-1.10;99.90
20457;DHT22;10387;51.102;6.848;2023-01-26T00:11:05;-1.10;99.90
20457;DHT22;10387;51.102;6.848;2023-01-26T00:13:31;-1.00;99.90
20457;DHT22;10387;51.102;6.848;2023-01-26T00:15:56;-1.00;99.90
20457;DHT22;10387;51.102;6.848;2023-01-26T00:18:22;-1.00;99.90
20457;DHT22;10387;51.102;6.848;2023-01-26T00:20:47;-1.00;99.90
20457;DHT22;10387;51.102;6.848;2023-01-26T00:23:14;-1.00;99.90
20457;DHT22;10387;51.102;6.848;2023-01-26T00:25:40;-1.00;99.90
20457;DHT22;10387;51.102;6.848;2023-01-26T00:28:05;-1.00;99.90
20457;DHT22;10387;51.102;6.848;2023-01-26T00:30:31;-1.00;99.90
20457;DHT22;10387;51.102;6.848;2023-01-26T00:32:57;-1.10;99.90
20457;DHT22;10387;51.102;6.848;2023-01-26T00:35:22;-1.10;99.90
20457;DHT22;10387;51.102;6.848;2023-01-26T00:37:48;-1.10;99.90
20457;DHT22;10387;51.102;6.848;2023-01-26T00:40:14;-1.10;99.90
20457;DHT22;10387;51.102;6.848;2023-01-26T00:42:39;-1.10;99.90
20457;DHT22;10387;51.102;6.848;2023-01-26T00:45:05;-1.00;99.90
20457;DHT22;10387;51.102;6.848;2023-01-26T00:47:31;-1.10;99.90
20457;DHT22;10387;51.102;6.848;2023-01-26T00:49:56;-1.00;99.90
20457;DHT22;10387;51.102;6.848;2023-01-26T00:52:22;-1.00;99.90
20457;DHT22;10387;51.102;6.848;2023-01-26T00:54:49;-1.10;99.90
20457;DHT22;10387;51.102;6.848;2023-01-26T00:57:14;-1.10;99.90
20457;DHT22;10387;51.102;6.848;2023-01-26T00:59:40;-1.00;99.90
20457;DHT22;10387;51.102;6.848;2023-01-26T01:02:07;-1.00;99.90
20457;DHT22;10387;51.102;6.848;2023-01-26T01:04:32;-1.00;99.90
20457;DHT22;10387;51.102;6.848;2023-01-26T01:06:59;-1.00;99.90
20457;DHT22;10387;51.102;6.848;2023-01-26T01:09:24;-1.00;99.90
20457;DHT22;10387;51.102;6.848;2023-01-26T01:11:50;-1.00;99.90
20457;DHT22;10387;51.102;6.848;2023-01-26T01:14:16;-1.00;99.90
20457;DHT22;10387;51.102;6.848;2023-01-26T01:16:42;-1.00;99.90
20457;DHT22;10387;51.102;6.848;2023-01-26T01:19:10;-1.00;99.90
20457;DHT22;10387;51.102;6.848;2023-01-26T01:21:37;-1.00;99.90
20457;DHT22;10387;51.102;6.848;2023-01-26T01:24:03;-0.90;99.90
20457;DHT22;10387;51.102;6.848;2023-01-26T01:26:28;-0.80;99.90
20457;DHT22;10387;51.102;6.848;2023-01-26T01:28:54;-0.80;99.90
20457;DHT22;10387;51.102;6.848;2023-01-26T01:31:20;-0.70;99.90
20457;DHT22;10387;51.102;6.848;2023-01-26T01:33:46;-0.70;99.90
20457;DHT22;10387;51.102;6.848;2023-01-26T01:36:13;-0.70;99.90
20457;DHT22;10387;51.102;6.848;2023-01-26T01:38:39;-0.80;99.90
20457;DHT22;10387;51.102;6.848;2023-01-26T01:41:05;-0.80;99.90
20457;DHT22;10387;51.102;6.848;2023-01-26T01:43:31;-0.70;99.90
20457;DHT22;10387;51.102;6.848;2023-01-26T01:45:57;-0.70;99.90
20457;DHT22;10387;51.102;6.848;2023-01-26T01:50:56;-0.70;99.90
20457;DHT22;10387;51.102;6.848;2023-01-26T01:53:31;-0.70;99.90
20457;DHT22;10387;51.102;6.848;2023-01-26T01:55:58;-0.60;99.90
20457;DHT22;10387;51.102;6.848;2023-01-26T01:58:28;-0.60;99.90
20457;DHT22;10387;51.102;6.848;2023-01-26T02:00:55;-0.60;99.90
20457;DHT22;10387;51.102;6.848;2023-01-26T02:03:21;-0.60;99.90
20457;DHT22;10387;51.102;6.848;2023-01-26T02:05:55;-0.70;99.90
20457;DHT22;10387;51.102;6.848;2023-01-26T02:08:26;-0.70;99.90
20457;DHT22;10387;51.102;6.848;2023-01-26T02:10:52;-0.70;99.90
20457;DHT22;10387;51.102;6.848;2023-01-26T02:13:19;-0.70;99.90
20457;DHT22;10387;51.102;6.848;2023-01-26T02:15:45;-0.60;99.90
20457;DHT22;10387;51.102;6.848;2023-01-26T02:18:10;-0.60;99.90
20457;DHT22;10387;51.102;6.848;2023-01-26T02:20:42;-0.70;99.90
20457;DHT22;10387;51.102;6.848;2023-01-26T02:28:15;-0.60;99.90
20457;DHT22;10387;51.102;6.848;2023-01-26T02:30:43;-0.60;99.90
20457;DHT22;10387;51.102;6.848;2023-01-26T02:33:22;-0.60;99.90
20457;DHT22;10387;51.102;6.848;2023-01-26T02:35:48;-0.70;99.90
20457;DHT22;10387;51.102;6.848;2023-01-26T02:38:14;-0.70;99.90
20457;DHT22;10387;51.102;6.848;2023-01-26T02:40:46;-0.70;99.90
20457;DHT22;10387;51.102;6.848;2023-01-26T02:43:14;-0.60;99.90
20457;DHT22;10387;51.102;6.848;2023-01-26T02:45:39;-0.70;99.90
20457;DHT22;10387;51.102;6.848;2023-01-26T02:48:06;-0.70;99.90
20457;DHT22;10387;51.102;6.848;2023-01-26T02:50:32;-0.70;99.90
20457;DHT22;10387;51.102;6.848;2023-01-26T02:52:58;-0.70;99.90
20457;DHT22;10387;51.102;6.848;2023-01-26T02:55:24;-0.70;99.90
20457;DHT22;10387;51.102;6.848;2023-01-26T02:57:51;-0.70;99.90
20457;DHT22;10387;51.102;6.848;2023-01-26T03:00:18;-0.60;99.90
20457;DHT22;10387;51.102;6.848;2023-01-26T03:02:44;-0.70;99.90
20457;DHT22;10387;51.102;6.848;2023-01-26T03:05:10;-0.70;99.90
20457;DHT22;10387;51.102;6.848;2023-01-26T03:07:36;-0.80;99.90
20457;DHT22;10387;51.102;6.848;2023-01-26T03:10:02;-0.80;99.90
20457;DHT22;10387;51.102;6.848;2023-01-26T03:12:27;-0.80;99.90
20457;DHT22;10387;51.102;6.848;2023-01-26T03:14:55;-0.80;99.90
20457;DHT22;10387;51.102;6.848;2023-01-26T03:17:39;-0.80;99.90
20457;DHT22;10387;51.102;6.848;2023-01-26T03:20:05;-0.80;99.90
20457;DHT22;10387;51.102;6.848;2023-01-26T03:22:50;-0.80;99.90
20457;DHT22;10387;51.102;6.848;2023-01-26T03:25:35;-0.80;99.90
20457;DHT22;10387;51.102;6.848;2023-01-26T03:28:20;-0.90;99.90
20457;DHT22;10387;51.102;6.848;2023-01-26T03:30:48;-0.90;99.90
20457;DHT22;10387;51.102;6.848;2023-01-26T03:33:17;-0.80;99.90
20457;DHT22;10387;51.102;6.848;2023-01-26T03:35:43;-0.80;99.90
20457;DHT22;10387;51.102;6.848;2023-01-26T03:38:08;-0.80;99.90
20457;DHT22;10387;51.102;6.848;2023-01-26T03:40:41;-0.80;99.90
20457;DHT22;10387;51.102;6.848;2023-01-26T03:43:26;-0.80;99.90
20457;DHT22;10387;51.102;6.848;2023-01-26T03:46:10;-0.80;99.90
20457;DHT22;10387;51.102;6.848;2023-01-26T03:48:54;-0.80;99.90
20457;DHT22;10387;51.102;6.848;2023-01-26T03:51:39;-0.80;99.90
20457;DHT22;10387;51.102;6.848;2023-01-26T03:54:23;-0.80;99.90
20457;DHT22;10387;51.102;6.848;2023-01-26T03:57:08;-0.80;99.90
20457;DHT22;10387;51.102;6.848;2023-01-26T03:59:33;-0.80;99.90
20457;DHT22;10387;51.102;6.848;2023-01-26T04:02:05;-0.80;99.90
20457;DHT22;10387;51.102;6.848;2023-01-26T04:04:50;-0.80;99.90
20457;DHT22;10387;51.102;6.848;2023-01-26T04:07:34;-0.90;99.90
20457;DHT22;10387;51.102;6.848;2023-01-26T04:10:18;-0.90;99.90
20457;DHT22;10387;51.102;6.848;2023-01-26T04:12:45;-0.90;99.90
20457;DHT22;10387;51.102;6.848;2023-01-26T04:15:29;-0.90;99.90
20457;DHT22;10387;51.102;6.848;2023-01-26T04:18:14;-0.80;99.90
20457;DHT22;10387;51.102;6.848;2023-01-26T04:21:00;-0.80;99.90
20457;DHT22;10387;51.102;6.848;2023-01-26T04:23:44;-0.80;99.90
20457;DHT22;10387;51.102;6.848;2023-01-26T04:26:10;-0.80;99.90
20457;DHT22;10387;51.102;6.848;2023-01-26T04:28:36;-0.80;99.90
20457;DHT22;10387;51.102;6.848;2023-01-26T04:31:03;-0.80;99.90
20457;DHT22;10387;51.102;6.848;2023-01-26T04:33:31;-0.80;99.90
20457;DHT22;10387;51.102;6.848;2023-01-26T04:36:01;-0.80;99.90
20457;DHT22;10387;51.102;6.848;2023-01-26T04:38:29;-0.80;99.90
20457;DHT22;10387;51.102;6.848;2023-01-26T04:40:55;-0.80;99.90
20457;DHT22;10387;51.102;6.848;2023-01-26T04:43:21;-0.80;99.90
20457;DHT22;10387;51.102;6.848;2023-01-26T04:45:59;-0.80;99.90
20457;DHT22;10387;51.102;6.848;2023-01-26T04:48:27;-0.80;99.90
20457;DHT22;10387;51.102;6.848;2023-01-26T04:50:53;-0.80;99.90
20457;DHT22;10387;51.102;6.848;2023-01-26T04:53:19;-0.80;99.90
20457;DHT22;10387;51.102;6.848;2023-01-26T04:55:44;-0.80;99.90
20457;DHT22;10387;51.102;6.848;2023-01-26T04:58:10;-0.80;99.90
20457;DHT22;10387;51.102;6.848;2023-01-26T05:00:36;-0.80;99.90
20457;DHT22;10387;51.102;6.848;2023-01-26T05:03:02;-0.80;99.90
20457;DHT22;10387;51.102;6.848;2023-01-26T05:05:28;-0.80;99.90
20457;DHT22;10387;51.102;6.848;2023-01-26T05:07:54;-0.80;99.90
20457;DHT22;10387;51.102;6.848;2023-01-26T05:10:20;-0.80;99.90
20457;DHT22;10387;51.102;6.848;2023-01-26T05:12:53;-0.80;99.90
20457;DHT22;10387;51.102;6.848;2023-01-26T05:15:44;-0.80;99.90
20457;DHT22;10387;51.102;6.848;2023-01-26T05:18:39;-0.80;99.90
20457;DHT22;10387;51.102;6.848;2023-01-26T05:21:24;-0.80;99.90
20457;DHT22;10387;51.102;6.848;2023-01-26T05:23:52;-0.70;99.90
20457;DHT22;10387;51.102;6.848;2023-01-26T05:26:27;-0.70;99.90
20457;DHT22;10387;51.102;6.848;2023-01-26T05:28:59;-0.70;99.90
20457;DHT22;10387;51.102;6.848;2023-01-26T05:31:25;-0.70;99.90
20457;DHT22;10387;51.102;6.848;2023-01-26T05:33:52;-0.70;99.90
20457;DHT22;10387;51.102;6.848;2023-01-26T05:36:21;-0.80;99.90
20457;DHT22;10387;51.102;6.848;2023-01-26T05:38:47;-0.70;99.90
20457;DHT22;10387;51.102;6.848;2023-01-26T05:41:13;-0.70;99.90
20457;DHT22;10387;51.102;6.848;2023-01-26T05:43:57;-0.70;99.90
20457;DHT22;10387;51.102;6.848;2023-01-26T05:46:49;-0.70;99.90
20457;DHT22;10387;51.102;6.848;2023-01-26T05:49:15;-0.70;99.90
20457;DHT22;10387;51.102;6.848;2023-01-26T05:51:41;-0.70;99.90
20457;DHT22;10387;51.102;6.848;2023-01-26T05:54:07;-0.70;99.90
20457;DHT22;10387;51.102;6.848;2023-01-26T05:56:33;-0.70;99.90
20457;DHT22;10387;51.102;6.848;2023-01-26T05:59:02;-0.70;99.90
20457;DHT22;10387;51.102;6.848;2023-01-26T06:01:27;-0.70;99.90
20457;DHT22;10387;51.102;6.848;2023-01-26T06:03:58;-0.70;99.90
20457;DHT22;10387;51.102;6.848;2023-01-26T06:06:26;-0.70;99.90
20457;DHT22;10387;51.102;6.848;2023-01-26T06:09:01;-0.70;99.90
20457;DHT22;10387;51.102;6.848;2023-01-26T06:11:30;-0.60;99.90
20457;DHT22;10387;51.102;6.848;2023-01-26T06:14:25;-0.60;99.90
20457;DHT22;10387;51.102;6.848;2023-01-26T06:16:51;-0.60;99.90
20457;DHT22;10387;51.102;6.848;2023-01-26T06:19:18;-0.60;99.90
20457;DHT22;10387;51.102;6.848;2023-01-26T06:21:50;-0.60;99.90
20457;DHT22;10387;51.102;6.848;2023-01-26T06:24:17;-0.60;99.90
20457;DHT22;10387;51.102;6.848;2023-01-26T06:26:46;-0.60;99.90
20457;DHT22;10387;51.102;6.848;2023-01-26T06:29:11;-0.60;99.90
20457;DHT22;10387;51.102;6.848;2023-01-26T06:31:37;-0.60;99.90
20457;DHT22;10387;51.102;6.848;2023-01-26T06:34:04;-0.60;99.90
20457;DHT22;10387;51.102;6.848;2023-01-26T06:36:31;-0.60;99.90
20457;DHT22;10387;51.102;6.848;2023-01-26T06:38:58;-0.60;99.90
20457;DHT22;10387;51.102;6.848;2023-01-26T06:41:24;-0.60;99.90
20457;DHT22;10387;51.102;6.848;2023-01-26T06:43:50;-0.60;99.90
20457;DHT22;10387;51.102;6.848;2023-01-26T06:46:15;-0.60;99.90
20457;DHT22;10387;51.102;6.848;2023-01-26T06:48:43;-0.60;99.90
20457;DHT22;10387;51.102;6.848;2023-01-26T06:53:54;-0.60;99.90
20457;DHT22;10387;51.102;6.848;2023-01-26T06:56:48;-0.60;99.90
20457;DHT22;10387;51.102;6.848;2023-01-26T06:59:34;-0.60;99.90
20457;DHT22;10387;51.102;6.848;2023-01-26T07:02:18;-0.60;99.90
20457;DHT22;10387;51.102;6.848;2023-01-26T07:04:44;-0.60;99.90
20457;DHT22;10387;51.102;6.848;2023-01-26T07:07:10;-0.60;99.90
20457;DHT22;10387;51.102;6.848;2023-01-26T07:09:35;-0.60;99.90
20457;DHT22;10387;51.102;6.848;2023-01-26T07:12:01;-0.60;99.90
20457;DHT22;10387;51.102;6.848;2023-01-26T07:14:26;-0.60;99.90
20457;DHT22;10387;51.102;6.848;2023-01-26T07:16:52;-0.60;99.90
20457;DHT22;10387;51.102;6.848;2023-01-26T07:19:17;-0.50;99.90
20457;DHT22;10387;51.102;6.848;2023-01-26T07:21:43;-0.60;99.90
20457;DHT22;10387;51.102;6.848;2023-01-26T07:24:08;-0.60;99.90
20457;DHT22;10387;51.102;6.848;2023-01-26T07:26:34;-0.60;99.90
20457;DHT22;10387;51.102;6.848;2023-01-26T07:28:59;-0.60;99.90
20457;DHT22;10387;51.102;6.848;2023-01-26T07:31:25;-0.60;99.90
20457;DHT22;10387;51.102;6.848;2023-01-26T07:33:51;-0.50;99.90
20457;DHT22;10387;51.102;6.848;2023-01-26T07:39:28;-0.50;99.90
20457;DHT22;10387;51.102;6.848;2023-01-26T07:41:58;-0.50;99.90
20457;DHT22;10387;51.102;6.848;2023-01-26T07:45:08;-0.50;99.90
20457;DHT22;10387;51.102;6.848;2023-01-26T07:48:28;-0.50;99.90
20457;DHT22;10387;51.102;6.848;2023-01-26T07:51:13;-0.50;99.90
20457;DHT22;10387;51.102;6.848;2023-01-26T07:53:38;-0.50;99.90
20457;DHT22;10387;51.102;6.848;2023-01-26T07:56:06;-0.50;99.90
20457;DHT22;10387;51.102;6.848;2023-01-26T07:58:32;-0.50;99.90
20457;DHT22;10387;51.102;6.848;2023-01-26T08:01:03;-0.40;99.90
20457;DHT22;10387;51.102;6.848;2023-01-26T08:03:29;-0.40;99.90
20457;DHT22;10387;51.102;6.848;2023-01-26T08:05:55;-0.40;99.90
20457;DHT22;10387;51.102;6.848;2023-01-26T08:08:20;-0.30;99.90
20457;DHT22;10387;51.102;6.848;2023-01-26T08:10:46;-0.30;99.90
20457;DHT22;10387;51.102;6.848;2023-01-26T08:13:11;-0.20;99.90
20457;DHT22;10387;51.102;6.848;2023-01-26T08:15:37;-0.20;99.90
20457;DHT22;10387;51.102;6.848;2023-01-26T08:18:21;-0.10;99.90
20457;DHT22;10387;51.102;6.848;2023-01-26T08:20:51;-0.10;99.90
20457;DHT22;10387;51.102;6.848;2023-01-26T08:23:16;-0.10;99.90
20457;DHT22;10387;51.102;6.848;2023-01-26T08:25:42;-0.10;99.90
20457;DHT22;10387;51.102;6.848;2023-01-26T08:28:07;0.00;99.90
20457;DHT22;10387;51.102;6.848;2023-01-26T08:30:33;0.00;99.90
20457;DHT22;10387;51.102;6.848;2023-01-26T08:32:58;0.00;99.90
20457;DHT22;10387;51.102;6.848;2023-01-26T08:35:24;-0.10;99.90
20457;DHT22;10387;51.102;6.848;2023-01-26T08:37:50;0.00;99.90
20457;DHT22;10387;51.102;6.848;2023-01-26T08:40:15;0.00;99.90
20457;DHT22;10387;51.102;6.848;2023-01-26T08:42:41;0.00;99.90
20457;DHT22;10387;51.102;6.848;2023-01-26T08:45:06;0.10;99.90
20457;DHT22;10387;51.102;6.848;2023-01-26T08:47:32;0.10;99.90
20457;DHT22;10387;51.102;6.848;2023-01-26T08:49:58;0.10;99.90
20457;DHT22;10387;51.102;6.848;2023-01-26T08:52:23;0.10;99.90
20457;DHT22;10387;51.102;6.848;2023-01-26T08:54:49;0.20;99.90
20457;DHT22;10387;51.102;6.848;2023-01-26T08:57:15;0.20;99.90
20457;DHT22;10387;51.102;6.848;2023-01-26T08:59:40;0.20;99.90
20457;DHT22;10387;51.102;6.848;2023-01-26T09:02:07;0.20;99.90
20457;DHT22;10387;51.102;6.848;2023-01-26T09:04:33;0.30;99.90
20457;DHT22;10387;51.102;6.848;2023-01-26T09:06:59;0.30;99.90
20457;DHT22;10387;51.102;6.848;2023-01-26T09:09:24;0.30;99.90
20457;DHT22;10387;51.102;6.848;2023-01-26T09:11:53;0.20;99.90
20457;DHT22;10387;51.102;6.848;2023-01-26T09:14:19;0.20;99.90
20457;DHT22;10387;51.102;6.848;2023-01-26T09:16:44;0.30;99.90
20457;DHT22;10387;51.102;6.848;2023-01-26T09:19:10;0.30;99.90
20457;DHT22;10387;51.102;6.848;2023-01-26T09:21:36;0.30;99.90
20457;DHT22;10387;51.102;6.848;2023-01-26T09:24:01;0.30;99.90
20457;DHT22;10387;51.102;6.848;2023-01-26T09:26:28;0.30;99.90
20457;DHT22;10387;51.102;6.848;2023-01-26T09:28:53;0.40;99.90
20457;DHT22;10387;51.102;6.848;2023-01-26T09:31:19;0.40;99.90
20457;DHT22;10387;51.102;6.848;2023-01-26T09:33:45;0.40;99.90
20457;DHT22;10387;51.102;6.848;2023-01-26T09:36:12;0.40;99.90
20457;DHT22;10387;51.102;6.848;2023-01-26T09:38:37;0.40;99.90
20457;DHT22;10387;51.102;6.848;2023-01-26T09:43:33;0.50;99.90
20457;DHT22;10387;51.102;6.848;2023-01-26T09:51:19;0.50;99.90
20457;DHT22;10387;51.102;6.848;2023-01-26T09:56:45;0.50;99.90
20457;DHT22;10387;51.102;6.848;2023-01-26T09:59:27;0.50;99.90
20457;DHT22;10387;51.102;6.848;2023-01-26T10:04:38;0.50;99.90
20457;DHT22;10387;51.102;6.848;2023-01-26T10:07:11;0.50;99.90
20457;DHT22;10387;51.102;6.848;2023-01-26T10:09:45;0.50;99.90
20457;DHT22;10387;51.102;6.848;2023-01-26T10:12:22;0.60;99.90
20457;DHT22;10387;51.102;6.848;2023-01-26T10:14:50;0.50;99.90
20457;DHT22;10387;51.102;6.848;2023-01-26T10:17:17;0.60;99.90
20457;DHT22;10387;51.102;6.848;2023-01-26T10:19:51;0.60;99.90
20457;DHT22;10387;51.102;6.848;2023-01-26T10:22:23;0.60;99.90
20457;DHT22;10387;51.102;6.848;2023-01-26T10:24:50;0.60;99.90
20457;DHT22;10387;51.102;6.848;2023-01-26T10:27:17;0.60;99.90
20457;DHT22;10387;51.102;6.848;2023-01-26T10:29:43;0.60;99.90
20457;DHT22;10387;51.102;6.848;2023-01-26T10:32:17;0.60;99.90
20457;DHT22;10387;51.102;6.848;2023-01-26T10:34:47;0.60;99.90
20457;DHT22;10387;51.102;6.848;2023-01-26T10:37:20;0.60;99.90
20457;DHT22;10387;51.102;6.848;2023-01-26T10:40:03;0.60;99.90
20457;DHT22;10387;51.102;6.848;2023-01-26T10:42:30;0.60;99.90
20457;DHT22;10387;51.102;6.848;2023-01-26T10:44:57;0.60;99.90
20457;DHT22;10387;51.102;6.848;2023-01-26T10:47:23;0.70;99.90
20457;DHT22;10387;51.102;6.848;2023-01-26T10:49:50;0.60;99.90
20457;DHT22;10387;51.102;6.848;2023-01-26T10:54:46;0.60;99.90
20457;DHT22;10387;51.102;6.848;2023-01-26T11:04:40;0.70;99.90
20457;DHT22;10387;51.102;6.848;2023-01-26T11:07:26;0.70;99.90
20457;DHT22;10387;51.102;6.848;2023-01-26T11:09:52;0.70;99.90
20457;DHT22;10387;51.102;6.848;2023-01-26T11:12:18;0.70;99.90
20457;DHT22;10387;51.102;6.848;2023-01-26T11:15:00;0.70;99.90
20457;DHT22;10387;51.102;6.848;2023-01-26T11:17:29;0.70;99.90
20457;DHT22;10387;51.102;6.848;2023-01-26T11:20:07;0.70;99.90
20457;DHT22;10387;51.102;6.848;2023-01-26T11:22:59;0.70;99.90
20457;DHT22;10387;51.102;6.848;2023-01-26T11:33:02;0.70;99.90
20457;DHT22;10387;51.102;6.848;2023-01-26T11:35:34;0.70;99.90
20457;DHT22;10387;51.102;6.848;2023-01-26T11:40:49;0.80;99.90
20457;DHT22;10387;51.102;6.848;2023-01-26T11:43:20;0.80;99.90
20457;DHT22;10387;51.102;6.848;2023-01-26T11:51:00;0.80;99.90
20457;DHT22;10387;51.102;6.848;2023-01-26T11:56:18;0.90;99.90
20457;DHT22;10387;51.102;6.848;2023-01-26T11:58:53;1.00;99.90
20457;DHT22;10387;51.102;6.848;2023-01-26T12:01:21;1.10;99.90
20457;DHT22;10387;51.102;6.848;2023-01-26T12:03:53;1.10;99.90
20457;DHT22;10387;51.102;6.848;2023-01-26T12:06:23;1.10;99.90
20457;DHT22;10387;51.102;6.848;2023-01-26T12:08:55;1.10;99.90
20457;DHT22;10387;51.102;6.848;2023-01-26T12:11:23;1.10;99.90
20457;DHT22;10387;51.102;6.848;2023-01-26T12:13:53;1.00;99.90
20457;DHT22;10387;51.102;6.848;2023-01-26T12:16:23;1.00;99.90
20457;DHT22;10387;51.102;6.848;2023-01-26T12:21:40;1.00;99.90
20457;DHT22;10387;51.102;6.848;2023-01-26T12:24:08;1.10;99.90
20457;DHT22;10387;51.102;6.848;2023-01-26T12:26:40;1.10;99.90
20457;DHT22;10387;51.102;6.848;2023-01-26T12:34:20;1.10;99.90
20457;DHT22;10387;51.102;6.848;2023-01-26T12:47:04;1.20;99.90
20457;DHT22;10387;51.102;6.848;2023-01-26T12:52:22;1.20;99.90
20457;DHT22;10387;51.102;6.848;2023-01-26T12:55:01;1.20;99.90
20457;DHT22;10387;51.102;6.848;2023-01-26T12:57:48;1.30;99.90
20457;DHT22;10387;51.102;6.848;2023-01-26T13:00:17;1.30;99.90
20457;DHT22;10387;51.102;6.848;2023-01-26T13:02:44;1.40;99.90
20457;DHT22;10387;51.102;6.848;2023-01-26T13:05:20;1.40;99.90
20457;DHT22;10387;51.102;6.848;2023-01-26T13:07:47;1.40;99.90
20457;DHT22;10387;51.102;6.848;2023-01-26T13:12:49;1.40;99.90
20457;DHT22;10387;51.102;6.848;2023-01-26T13:15:16;1.40;99.90
20457;DHT22;10387;51.102;6.848;2023-01-26T13:20:56;1.40;99.90
20457;DHT22;10387;51.102;6.848;2023-01-26T13:23:08;1.40;99.90
20457;DHT22;10387;51.102;6.848;2023-01-26T13:26:08;1.40;99.90
20457;DHT22;10387;51.102;6.848;2023-01-26T13:28:34;1.40;99.90
20457;DHT22;10387;51.102;6.848;2023-01-26T13:31:03;1.40;99.90
20457;DHT22;10387;51.102;6.848;2023-01-26T13:33:29;1.50;99.90
20457;DHT22;10387;51.102;6.848;2023-01-26T13:35:55;1.50;99.90
20457;DHT22;10387;51.102;6.848;2023-01-26T13:40:54;1.50;99.90
20457;DHT22;10387;51.102;6.848;2023-01-26T13:45:57;1.50;99.90
20457;DHT22;10387;51.102;6.848;2023-01-26T13:48:41;1.50;99.90
20457;DHT22;10387;51.102;6.848;2023-01-26T13:51:11;1.50;99.90
20457;DHT22;10387;51.102;6.848;2023-01-26T13:56:22;1.60;99.90
20457;DHT22;10387;51.102;6.848;2023-01-26T13:58:48;1.60;99.90
20457;DHT22;10387;51.102;6.848;2023-01-26T14:01:14;1.60;99.90
20457;DHT22;10387;51.102;6.848;2023-01-26T14:03:42;1.50;99.90
20457;DHT22;10387;51.102;6.848;2023-01-26T14:06:18;1.50;99.90
20457;DHT22;10387;51.102;6.848;2023-01-26T14:08:51;1.60;99.90
20457;DHT22;10387;51.102;6.848;2023-01-26T14:11:20;1.50;99.90
20457;DHT22;10387;51.102;6.848;2023-01-26T14:13:47;1.50;99.90
20457;DHT22;10387;51.102;6.848;2023-01-26T14:16:19;1.50;99.90
20457;DHT22;10387;51.102;6.848;2023-01-26T14:18:46;1.60;99.90
20457;DHT22;10387;51.102;6.848;2023-01-26T14:21:21;1.50;99.90
20457;DHT22;10387;51.102;6.848;2023-01-26T14:23:54;1.60;99.90
20457;DHT22;10387;51.102;6.848;2023-01-26T14:26:22;1.60;99.90
20457;DHT22;10387;51.102;6.848;2023-01-26T14:28:49;1.60;99.90
20457;DHT22;10387;51.102;6.848;2023-01-26T14:31:19;1.60;99.90
20457;DHT22;10387;51.102;6.848;2023-01-26T14:33:46;1.60;99.90
20457;DHT22;10387;51.102;6.848;2023-01-26T14:36:16;1.60;99.90
20457;DHT22;10387;51.102;6.848;2023-01-26T14:38:43;1.70;99.90
20457;DHT22;10387;51.102;6.848;2023-01-26T14:41:12;1.70;99.90
20457;DHT22;10387;51.102;6.848;2023-01-26T14:43:40;1.70;99.90
20457;DHT22;10387;51.102;6.848;2023-01-26T14:46:07;1.70;99.90
20457;DHT22;10387;51.102;6.848;2023-01-26T14:48:36;1.70;99.90
20457;DHT22;10387;51.102;6.848;2023-01-26T14:51:04;1.70;99.90
20457;DHT22;10387;51.102;6.848;2023-01-26T14:53:31;1.70;99.90
20457;DHT22;10387;51.102;6.848;2023-01-26T14:55:56;1.70;99.90
20457;DHT22;10387;51.102;6.848;2023-01-26T14:58:29;1.70;99.90
20457;DHT22;10387;51.102;6.848;2023-01-26T15:00:57;1.70;99.90
20457;DHT22;10387;51.102;6.848;2023-01-26T15:03:27;1.70;99.90
20457;DHT22;10387;51.102;6.848;2023-01-26T15:06:16;1.70;99.90
20457;DHT22;10387;51.102;6.848;2023-01-26T15:08:51;1.70;99.90
20457;DHT22;10387;51.102;6.848;2023-01-26T15:11:22;1.80;99.90
20457;DHT22;10387;51.102;6.848;2023-01-26T15:14:17;1.80;99.90
20457;DHT22;10387;51.102;6.848;2023-01-26T15:16:52;1.80;99.90
20457;DHT22;10387;51.102;6.848;2023-01-26T15:19:21;1.80;99.90
20457;DHT22;10387;51.102;6.848;2023-01-26T15:21:47;1.80;99.90
20457;DHT22;10387;51.102;6.848;2023-01-26T15:24:14;1.80;99.90
20457;DHT22;10387;51.102;6.848;2023-01-26T15:26:40;1.80;99.90
20457;DHT22;10387;51.102;6.848;2023-01-26T15:29:15;1.80;99.90
20457;DHT22;10387;51.102;6.848;2023-01-26T15:31:42;1.80;99.90
20457;DHT22;10387;51.102;6.848;2023-01-26T15:36:52;1.90;99.90
20457;DHT22;10387;51.102;6.848;2023-01-26T15:39:18;1.80;99.90
20457;DHT22;10387;51.102;6.848;2023-01-26T15:41:45;1.90;99.90
20457;DHT22;10387;51.102;6.848;2023-01-26T15:44:18;1.90;99.90
20457;DHT22;10387;51.102;6.848;2023-01-26T15:46:44;1.90;99.90
20457;DHT22;10387;51.102;6.848;2023-01-26T15:49:12;1.90;99.90
20457;DHT22;10387;51.102;6.848;2023-01-26T15:51:39;1.90;99.90
20457;DHT22;10387;51.102;6.848;2023-01-26T15:54:05;1.90;99.90
20457;DHT22;10387;51.102;6.848;2023-01-26T15:56:31;1.90;99.90
20457;DHT22;10387;51.102;6.848;2023-01-26T15:58:56;1.90;99.90
20457;DHT22;10387;51.102;6.848;2023-01-26T16:01:22;2.00;99.90
20457;DHT22;10387;51.102;6.848;2023-01-26T16:03:48;2.00;99.90
20457;DHT22;10387;51.102;6.848;2023-01-26T16:06:24;2.00;99.90
20457;DHT22;10387;51.102;6.848;2023-01-26T16:08:50;2.10;99.90
20457;DHT22;10387;51.102;6.848;2023-01-26T16:11:16;2.10;99.90
20457;DHT22;10387;51.102;6.848;2023-01-26T16:13:42;2.10;99.90
20457;DHT22;10387;51.102;6.848;2023-01-26T16:16:14;2.10;99.90
20457;DHT22;10387;51.102;6.848;2023-01-26T16:18:40;2.20;99.90
20457;DHT22;10387;51.102;6.848;2023-01-26T16:21:26;2.10;99.90
20457;DHT22;10387;51.102;6.848;2023-01-26T16:23:57;2.20;99.90
20457;DHT22;10387;51.102;6.848;2023-01-26T16:26:24;2.20;99.90
20457;DHT22;10387;51.102;6.848;2023-01-26T16:28:49;2.20;99.90
20457;DHT22;10387;51.102;6.848;2023-01-26T16:31:17;2.20;99.90
20457;DHT22;10387;51.102;6.848;2023-01-26T16:33:45;2.30;99.90
20457;DHT22;10387;51.102;6.848;2023-01-26T16:36:11;2.20;99.90
20457;DHT22;10387;51.102;6.848;2023-01-26T16:38:37;2.30;99.90
20457;DHT22;10387;51.102;6.848;2023-01-26T16:41:34;2.40;99.90
20457;DHT22;10387;51.102;6.848;2023-01-26T16:44:33;2.40;99.90
20457;DHT22;10387;51.102;6.848;2023-01-26T16:47:00;2.40;99.90
20457;DHT22;10387;51.102;6.848;2023-01-26T16:49:28;2.40;99.90
20457;DHT22;10387;51.102;6.848;2023-01-26T16:51:53;2.40;99.90
20457;DHT22;10387;51.102;6.848;2023-01-26T16:54:19;2.40;99.90
20457;DHT22;10387;51.102;6.848;2023-01-26T16:56:44;2.40;99.90
20457;DHT22;10387;51.102;6.848;2023-01-26T16:59:10;2.40;99.90
20457;DHT22;10387;51.102;6.848;2023-01-26T17:01:36;2.50;99.90
20457;DHT22;10387;51.102;6.848;2023-01-26T17:04:02;2.50;99.90
20457;DHT22;10387;51.102;6.848;2023-01-26T17:06:28;2.60;99.90
20457;DHT22;10387;51.102;6.848;2023-01-26T17:08:53;2.50;99.90
20457;DHT22;10387;51.102;6.848;2023-01-26T17:11:20;2.60;99.90
20457;DHT22;10387;51.102;6.848;2023-01-26T17:13:46;2.60;99.90
20457;DHT22;10387;51.102;6.848;2023-01-26T17:16:16;2.50;99.90
20457;DHT22;10387;51.102;6.848;2023-01-26T17:18:42;2.50;99.90
20457;DHT22;10387;51.102;6.848;2023-01-26T17:21:09;2.50;99.90
20457;DHT22;10387;51.102;6.848;2023-01-26T17:23:35;2.50;99.90
20457;DHT22;10387;51.102;6.848;2023-01-26T17:26:02;2.50;99.90